Ital Oriente — A8LN2 — position and weather

sailwx.info

Track history (hours):
 
Tides and Currents Weather Stations Pressure Air Temp Water Temp Dewpoint Dewpoint Depression Visibility Wind Speed Wind Dir Waves Ship Positions

Ital Oriente

Last reported at 2016-Feb-10 04:33 UTC. Time now 2016-Feb-10 04:35 UTC.
Position N 37°51' E 023°32'.

Length 222 m; draft 8.1 m.

Type: Cargo ship. MMSI: 636091278.

Date/timePositionNaut miles runAvg speedWind from/ knotsBaromVisibWave heightAir tempDewpointWater temp
2016-Feb-10 04:33N 37°51' E 023°32'0 0.2
2016-Feb-10 03:33N 37°51' E 023°32'0 0.1
2016-Feb-10 02:33N 37°51' E 023°32'0 0.1
2016-Feb-10 01:33N 37°51' E 023°32'0 0.1
2016-Feb-10 00:33N 37°51' E 023°32'0 0.1
2016-Feb-09 23:33N 37°51' E 023°32'0 0.0
2016-Feb-09 22:33N 37°51' E 023°32'0 0.0
2016-Feb-09 21:33N 37°51' E 023°32'2 2.5
2016-Feb-09 20:33N 37°51' E 023°35'1110.6
2016-Feb-09 19:34N 37°44' E 023°45'1514.9
2016-Feb-09 18:32N 37°37' E 024°02'1715.5
2016-Feb-09 17:26N 37°46' E 024°20'  
2016-Feb-06 23:28N 39°41' E 023°56'11020.0
2016-Feb-06 18:00N 38°48' E 026°00'55 2.3 010 / 301026.010.8 2.5 7.0 4.915.5
2016-Feb-05 18:00N 39°42' E 025°48'   020 / 421016.0 5.4 4.0 5.5-0.414.5
2016-Feb-03 09:33N 37°38' E 023°48'1818.0
2016-Feb-03 08:33N 37°54' E 023°38'4 3.9
2016-Feb-03 07:33N 37°57' E 023°36'0 0.0
2016-Feb-03 06:33N 37°57' E 023°36'0 0.0
2016-Feb-03 05:33N 37°57' E 023°36'0 0.0
2016-Feb-03 04:33N 37°57' E 023°36'0 0.0
2016-Feb-03 03:33N 37°57' E 023°36'0 0.0
2016-Feb-03 02:33N 37°57' E 023°36'0 0.0
2016-Feb-03 01:33N 37°57' E 023°36'0 0.0
2016-Feb-03 00:33N 37°57' E 023°36'0 0.0
2016-Feb-02 23:33N 37°57' E 023°36'0 0.0
2016-Feb-02 22:33N 37°57' E 023°36'0 0.0
2016-Feb-02 21:33N 37°57' E 023°36'0 0.0
2016-Feb-02 20:33N 37°57' E 023°36'0 0.0
2016-Feb-02 19:33N 37°57' E 023°36'0 0.0
2016-Feb-02 18:33N 37°57' E 023°36'0 0.0
2016-Feb-02 17:33N 37°57' E 023°36'0 0.0
2016-Feb-02 16:33N 37°57' E 023°36'0 0.0
2016-Feb-02 15:33N 37°57' E 023°36'0 0.0
2016-Feb-02 14:33N 37°57' E 023°36'0 0.0
2016-Feb-02 13:33N 37°57' E 023°36'0 0.0
2016-Feb-02 12:33N 37°57' E 023°36'0 0.0
2016-Feb-02 11:33N 37°57' E 023°36'0 0.0
2016-Feb-02 10:33N 37°57' E 023°36'0 0.0
2016-Feb-02 09:33N 37°57' E 023°36'0 0.0
2016-Feb-02 08:33N 37°57' E 023°36'0 0.0
2016-Feb-02 07:33N 37°57' E 023°36'0 0.0
2016-Feb-02 06:33N 37°57' E 023°36'0 0.0
2016-Feb-02 05:33N 37°57' E 023°36'0 0.0
2016-Feb-02 04:33N 37°57' E 023°36'0 0.0
2016-Feb-02 03:33N 37°57' E 023°36'0 0.0
2016-Feb-02 02:33N 37°57' E 023°36'0 0.0
2016-Feb-02 01:33N 37°57' E 023°36'0 0.0
2016-Feb-02 00:33N 37°57' E 023°36'0 0.0
2016-Feb-01 23:33N 37°57' E 023°36'0 0.0
2016-Feb-01 22:33N 37°57' E 023°36'0 0.0
2016-Feb-01 21:33N 37°57' E 023°36'0 0.0
2016-Feb-01 20:27N 37°57' E 023°36'0 0.0
2016-Feb-01 19:33N 37°57' E 023°36'0 0.0
2016-Feb-01 18:33N 37°57' E 023°36'0 0.0
2016-Feb-01 17:33N 37°57' E 023°36'0 0.0
2016-Feb-01 16:33N 37°57' E 023°36'0 0.0
2016-Feb-01 15:33N 37°57' E 023°36'0 0.0
2016-Feb-01 14:33N 37°57' E 023°36'0 0.0
2016-Feb-01 13:33N 37°57' E 023°36'0 0.0
2016-Feb-01 12:33N 37°57' E 023°36'0 0.0
2016-Feb-01 11:34N 37°57' E 023°36'5 5.2
2016-Feb-01 10:34N 37°52' E 023°35'1 0.9
2016-Feb-01 09:34N 37°51' E 023°35'2 2.4
2016-Feb-01 08:34N 37°51' E 023°38'1110.7
2016-Feb-01 07:34N 37°41' E 023°45'1711.1
2016-Feb-01 06:00N 37°36' E 024°06'1016.8 230 / 171018.510.8 0.516.012.715.0
2016-Feb-01 05:22N 37°43' E 024°16'  
Track history (hours):
 
Tides and Currents Weather Stations Pressure Air Temp Water Temp Dewpoint Dewpoint Depression Visibility Wind Speed Wind Dir Waves Ship Positions

Ital Oriente

Last reported at 2016-Feb-10 04:33 UTC. Time now 2016-Feb-10 04:35 UTC.
Position N 37°51' E 023°32'.

Length 222 m; draft 8.1 m.

Type: Cargo ship. MMSI: 636091278.

Date/timePositionNaut miles runAvg speedWind from/ knotsBaromVisibWave heightAir tempDewpointWater temp
2016-Feb-10 04:33N 37°51' E 023°32'0 0.2
2016-Feb-10 03:33N 37°51' E 023°32'0 0.1
2016-Feb-10 02:33N 37°51' E 023°32'0 0.1
2016-Feb-10 01:33N 37°51' E 023°32'0 0.1
2016-Feb-10 00:33N 37°51' E 023°32'0 0.1
2016-Feb-09 23:33N 37°51' E 023°32'0 0.0
2016-Feb-09 22:33N 37°51' E 023°32'0 0.0
2016-Feb-09 21:33N 37°51' E 023°32'2 2.5
2016-Feb-09 20:33N 37°51' E 023°35'1110.6
2016-Feb-09 19:34N 37°44' E 023°45'1514.9
2016-Feb-09 18:32N 37°37' E 024°02'1715.5
2016-Feb-09 17:26N 37°46' E 024°20'  
2016-Feb-06 23:28N 39°41' E 023°56'11020.0
2016-Feb-06 18:00N 38°48' E 026°00'55 2.3 010 / 301026.010.8 2.5 7.0 4.915.5
2016-Feb-05 18:00N 39°42' E 025°48'   020 / 421016.0 5.4 4.0 5.5-0.414.5
2016-Feb-03 09:33N 37°38' E 023°48'1818.0
2016-Feb-03 08:33N 37°54' E 023°38'4 3.9
2016-Feb-03 07:33N 37°57' E 023°36'0 0.0
2016-Feb-03 06:33N 37°57' E 023°36'0 0.0
2016-Feb-03 05:33N 37°57' E 023°36'0 0.0
2016-Feb-03 04:33N 37°57' E 023°36'0 0.0
2016-Feb-03 03:33N 37°57' E 023°36'0 0.0
2016-Feb-03 02:33N 37°57' E 023°36'0 0.0
2016-Feb-03 01:33N 37°57' E 023°36'0 0.0
2016-Feb-03 00:33N 37°57' E 023°36'0 0.0
2016-Feb-02 23:33N 37°57' E 023°36'0 0.0
2016-Feb-02 22:33N 37°57' E 023°36'0 0.0
2016-Feb-02 21:33N 37°57' E 023°36'0 0.0
2016-Feb-02 20:33N 37°57' E 023°36'0 0.0
2016-Feb-02 19:33N 37°57' E 023°36'0 0.0
2016-Feb-02 18:33N 37°57' E 023°36'0 0.0
2016-Feb-02 17:33N 37°57' E 023°36'0 0.0
2016-Feb-02 16:33N 37°57' E 023°36'0 0.0
2016-Feb-02 15:33N 37°57' E 023°36'0 0.0
2016-Feb-02 14:33N 37°57' E 023°36'0 0.0
2016-Feb-02 13:33N 37°57' E 023°36'0 0.0
2016-Feb-02 12:33N 37°57' E 023°36'0 0.0
2016-Feb-02 11:33N 37°57' E 023°36'0 0.0
2016-Feb-02 10:33N 37°57' E 023°36'0 0.0
2016-Feb-02 09:33N 37°57' E 023°36'0 0.0
2016-Feb-02 08:33N 37°57' E 023°36'0 0.0
2016-Feb-02 07:33N 37°57' E 023°36'0 0.0
2016-Feb-02 06:33N 37°57' E 023°36'0 0.0
2016-Feb-02 05:33N 37°57' E 023°36'0 0.0
2016-Feb-02 04:33N 37°57' E 023°36'0 0.0
2016-Feb-02 03:33N 37°57' E 023°36'0 0.0
2016-Feb-02 02:33N 37°57' E 023°36'0 0.0
2016-Feb-02 01:33N 37°57' E 023°36'0 0.0
2016-Feb-02 00:33N 37°57' E 023°36'0 0.0
2016-Feb-01 23:33N 37°57' E 023°36'0 0.0
2016-Feb-01 22:33N 37°57' E 023°36'0 0.0
2016-Feb-01 21:33N 37°57' E 023°36'0 0.0
2016-Feb-01 20:27N 37°57' E 023°36'0 0.0
2016-Feb-01 19:33N 37°57' E 023°36'0 0.0
2016-Feb-01 18:33N 37°57' E 023°36'0 0.0
2016-Feb-01 17:33N 37°57' E 023°36'0 0.0
2016-Feb-01 16:33N 37°57' E 023°36'0 0.0
2016-Feb-01 15:33N 37°57' E 023°36'0 0.0
2016-Feb-01 14:33N 37°57' E 023°36'0 0.0
2016-Feb-01 13:33N 37°57' E 023°36'0 0.0
2016-Feb-01 12:33N 37°57' E 023°36'0 0.0
2016-Feb-01 11:34N 37°57' E 023°36'5 5.2
2016-Feb-01 10:34N 37°52' E 023°35'1 0.9
2016-Feb-01 09:34N 37°51' E 023°35'2 2.4
2016-Feb-01 08:34N 37°51' E 023°38'1110.7
2016-Feb-01 07:34N 37°41' E 023°45'1711.1
2016-Feb-01 06:00N 37°36' E 024°06'1016.8 230 / 171018.510.8 0.516.012.715.0
2016-Feb-01 05:22N 37°43' E 024°16'  

Dump ship's entire track history